| Date | Time | Temp. (oF) | Dew Point (oF) | Rel. Hum. (%) | Press. (in.) | Wind Dir. | Wind Speed (mph) | Hourly Rainfall (in.) |
|
|---|---|---|---|---|---|---|---|---|---|
| 1 | 11/10 | 00:00 | 42 | 32 | 69 | 30.06 | SSE | 6 | 0.00 |
| 2 | 11/09 | 23:00 | 45 | 33 | 64 | 30.06 | SSE | 10 | 0.00 |
| 3 | 11/09 | 22:00 | 46 | 35 | 67 | 30.03 | SSE | 10 | 0.00 |
| 4 | 11/09 | 21:00 | 47 | 37 | 69 | 30.03 | SSE | 13 | 0.00 |
| 5 | 11/09 | 20:00 | 47 | 39 | 75 | 30.00 | SSE | 5 | 0.00 |
| 6 | 11/09 | 19:00 | 49 | 42 | 77 | 29.98 | WSW | 9 | 0.00 |
| 7 | 11/09 | 18:00 | 50 | 46 | 89 | 29.95 | SSE | 6 | 0.01 |
| 8 | 11/09 | 17:00 | 50 | 46 | 89 | 29.92 | SSE | 6 | 0.03 |
| 9 | 11/09 | 16:00 | 51 | 47 | 88 | 29.90 | SSE | 11 | 0.03 |
| 10 | 11/09 | 15:00 | 52 | 49 | 90 | 29.88 | SSE | 5 | 0.05 |
| 11 | 11/09 | 14:00 | 53 | 50 | 91 | 29.87 | SSE | 7 | 0.03 |
| 12 | 11/09 | 13:00 | 53 | 49 | 88 | 29.86 | ESE | 4 | 0.01 |
| 13 | 11/09 | 12:00 | 54 | 50 | 88 | 29.87 | S | 5 | 0.01 |
| 14 | 11/09 | 11:00 | 53 | 50 | 90 | 29.89 | W | 0 | 0.01 |
| 15 | 11/09 | 10:00 | 51 | 47 | 89 | 29.89 | WNW | 0 | 0.02 |
| 16 | 11/09 | 09:00 | 48 | 44 | 89 | 29.90 | WNW | 0 | 0.03 |
| 17 | 11/09 | 08:00 | 46 | 42 | 87 | 29.91 | SSW | 0 | 0.04 |
| 18 | 11/09 | 07:00 | 46 | 41 | 85 | 29.91 | W | 0 | 0.04 |
| 19 | 11/09 | 06:00 | 46 | 41 | 83 | 29.90 | S | 0 | 0.01 |
| 20 | 11/09 | 05:00 | 46 | 39 | 77 | 29.90 | W | 0 | 0.00 |
| 21 | 11/09 | 04:00 | 46 | 38 | 74 | 29.90 | W | 0 | 0.00 |
| 22 | 11/09 | 03:00 | 45 | 37 | 75 | 29.92 | WSW | 0 | 0.00 |
| 23 | 11/09 | 02:00 | 45 | 36 | 73 | 29.91 | S | 0 | 0.00 |
| 24 | 11/09 | 01:00 | 44 | 35 | 73 | 29.94 | S | 0 | 0.00 |